sensor_id;sensor_type;location;lat;lon;timestamp;pressure;altitude;pressure_sealevel;temperature;humidity
76853;BME280;65825;52.232;10.566;2023-01-24T00:01:27;103035.69;;;2.22;86.94
76853;BME280;65825;52.232;10.566;2023-01-24T00:03:52;103035.75;;;2.23;86.30
76853;BME280;65825;52.232;10.566;2023-01-24T00:06:17;103033.19;;;2.25;86.04
76853;BME280;65825;52.232;10.566;2023-01-24T00:08:43;103039.94;;;2.20;86.68
76853;BME280;65825;52.232;10.566;2023-01-24T00:11:10;103025.53;;;2.28;85.91
76853;BME280;65825;52.232;10.566;2023-01-24T00:13:37;103026.78;;;2.17;86.05
76853;BME280;65825;52.232;10.566;2023-01-24T00:18:28;103029.53;;;2.20;86.35
76853;BME280;65825;52.232;10.566;2023-01-24T00:21:00;103035.56;;;2.19;86.37
76853;BME280;65825;52.232;10.566;2023-01-24T00:23:25;103029.16;;;2.11;86.78
76853;BME280;65825;52.232;10.566;2023-01-24T00:25:51;103033.66;;;2.15;86.69
76853;BME280;65825;52.232;10.566;2023-01-24T00:28:16;103026.84;;;2.18;86.24
76853;BME280;65825;52.232;10.566;2023-01-24T00:30:41;103032.84;;;2.16;86.33
76853;BME280;65825;52.232;10.566;2023-01-24T00:33:06;103033.50;;;2.10;86.80
76853;BME280;65825;52.232;10.566;2023-01-24T00:35:31;103031.84;;;2.12;86.49
76853;BME280;65825;52.232;10.566;2023-01-24T00:37:57;103021.47;;;2.14;86.26
76853;BME280;65825;52.232;10.566;2023-01-24T00:40:22;103023.31;;;2.16;86.35
76853;BME280;65825;52.232;10.566;2023-01-24T00:42:47;103021.47;;;2.14;86.45
76853;BME280;65825;52.232;10.566;2023-01-24T00:45:12;103023.47;;;2.21;86.28
76853;BME280;65825;52.232;10.566;2023-01-24T00:47:38;103014.72;;;2.19;85.83
76853;BME280;65825;52.232;10.566;2023-01-24T00:50:03;103014.19;;;2.05;86.79
76853;BME280;65825;52.232;10.566;2023-01-24T00:52:29;103020.47;;;2.10;86.58
76853;BME280;65825;52.232;10.566;2023-01-24T00:54:54;103015.97;;;2.06;86.87
76853;BME280;65825;52.232;10.566;2023-01-24T00:57:19;103016.34;;;2.15;86.29
76853;BME280;65825;52.232;10.566;2023-01-24T00:59:46;103027.56;;;2.14;86.58
76853;BME280;65825;52.232;10.566;2023-01-24T01:02:11;103027.69;;;2.17;86.40
76853;BME280;65825;52.232;10.566;2023-01-24T01:04:36;103030.81;;;2.09;86.60
76853;BME280;65825;52.232;10.566;2023-01-24T01:07:02;103028.53;;;2.16;86.18
76853;BME280;65825;52.232;10.566;2023-01-24T01:09:27;103031.19;;;2.18;86.31
76853;BME280;65825;52.232;10.566;2023-01-24T01:11:52;103030.22;;;2.16;86.16
76853;BME280;65825;52.232;10.566;2023-01-24T01:14:17;103035.34;;;2.13;86.54
76853;BME280;65825;52.232;10.566;2023-01-24T01:16:43;103036.03;;;2.09;86.71
76853;BME280;65825;52.232;10.566;2023-01-24T01:19:08;103032.72;;;2.13;86.28
76853;BME280;65825;52.232;10.566;2023-01-24T01:21:33;103036.09;;;2.10;86.11
76853;BME280;65825;52.232;10.566;2023-01-24T01:23:59;103036.34;;;2.16;85.95
76853;BME280;65825;52.232;10.566;2023-01-24T01:26:24;103024.63;;;2.05;86.77
76853;BME280;65825;52.232;10.566;2023-01-24T01:28:49;103028.28;;;2.10;86.33
76853;BME280;65825;52.232;10.566;2023-01-24T01:31:15;103039.78;;;2.15;86.09
76853;BME280;65825;52.232;10.566;2023-01-24T01:33:42;103033.66;;;2.15;85.87
76853;BME280;65825;52.232;10.566;2023-01-24T01:36:08;103045.63;;;2.10;86.20
76853;BME280;65825;52.232;10.566;2023-01-24T01:38:33;103044.78;;;2.11;86.19
76853;BME280;65825;52.232;10.566;2023-01-24T01:40:58;103042.00;;;2.06;86.74
76853;BME280;65825;52.232;10.566;2023-01-24T01:43:26;103031.00;;;2.13;86.62
76853;BME280;65825;52.232;10.566;2023-01-24T01:45:54;103034.59;;;2.17;86.43
76853;BME280;65825;52.232;10.566;2023-01-24T01:48:38;103034.38;;;2.11;86.43
76853;BME280;65825;52.232;10.566;2023-01-24T01:51:14;103035.03;;;2.05;86.38
76853;BME280;65825;52.232;10.566;2023-01-24T01:53:56;103034.81;;;2.01;86.54
76853;BME280;65825;52.232;10.566;2023-01-24T01:56:31;103042.09;;;2.08;86.52
76853;BME280;65825;52.232;10.566;2023-01-24T01:59:02;103040.31;;;2.07;86.33
76853;BME280;65825;52.232;10.566;2023-01-24T02:01:30;103036.66;;;2.03;86.49
76853;BME280;65825;52.232;10.566;2023-01-24T02:04:08;103038.56;;;2.07;86.35
76853;BME280;65825;52.232;10.566;2023-01-24T02:06:50;103034.78;;;1.99;86.42
76853;BME280;65825;52.232;10.566;2023-01-24T02:09:22;103034.03;;;2.02;86.55
76853;BME280;65825;52.232;10.566;2023-01-24T02:11:50;103041.78;;;2.00;86.47
76853;BME280;65825;52.232;10.566;2023-01-24T02:14:19;103039.78;;;1.95;87.03
76853;BME280;65825;52.232;10.566;2023-01-24T02:17:04;103045.25;;;2.01;86.68
76853;BME280;65825;52.232;10.566;2023-01-24T02:19:41;103037.19;;;1.95;86.68
76853;BME280;65825;52.232;10.566;2023-01-24T02:22:17;103044.38;;;2.00;86.45
76853;BME280;65825;52.232;10.566;2023-01-24T02:24:50;103039.09;;;1.99;86.86
76853;BME280;65825;52.232;10.566;2023-01-24T02:27:20;103034.25;;;2.08;86.13
76853;BME280;65825;52.232;10.566;2023-01-24T02:29:46;103043.53;;;2.01;86.53
76853;BME280;65825;52.232;10.566;2023-01-24T02:32:11;103034.72;;;1.98;86.87
76853;BME280;65825;52.232;10.566;2023-01-24T02:34:38;103038.19;;;1.98;86.82
76853;BME280;65825;52.232;10.566;2023-01-24T02:37:09;103037.19;;;1.95;86.54
76853;BME280;65825;52.232;10.566;2023-01-24T02:39:43;103036.25;;;1.93;86.46
76853;BME280;65825;52.232;10.566;2023-01-24T02:42:18;103035.19;;;1.88;87.16
76853;BME280;65825;52.232;10.566;2023-01-24T02:45:05;103035.59;;;1.98;86.64
76853;BME280;65825;52.232;10.566;2023-01-24T02:47:37;103037.44;;;2.01;86.21
76853;BME280;65825;52.232;10.566;2023-01-24T02:50:04;103036.56;;;2.00;86.53
76853;BME280;65825;52.232;10.566;2023-01-24T02:52:31;103026.31;;;2.05;86.22
76853;BME280;65825;52.232;10.566;2023-01-24T02:55:16;103034.03;;;1.81;87.49
76853;BME280;65825;52.232;10.566;2023-01-24T02:57:41;103039.72;;;1.93;86.39
76853;BME280;65825;52.232;10.566;2023-01-24T03:00:25;103029.19;;;1.90;87.50
76853;BME280;65825;52.232;10.566;2023-01-24T03:02:50;103036.34;;;1.96;86.82
76853;BME280;65825;52.232;10.566;2023-01-24T03:05:15;103036.44;;;1.97;86.58
76853;BME280;65825;52.232;10.566;2023-01-24T03:07:41;103039.28;;;2.03;86.38
76853;BME280;65825;52.232;10.566;2023-01-24T03:10:10;103033.13;;;2.01;86.36
76853;BME280;65825;52.232;10.566;2023-01-24T03:12:36;103052.28;;;2.03;86.04
76853;BME280;65825;52.232;10.566;2023-01-24T03:15:20;103047.50;;;1.92;86.74
76853;BME280;65825;52.232;10.566;2023-01-24T03:18:05;103038.63;;;1.87;86.58
76853;BME280;65825;52.232;10.566;2023-01-24T03:20:49;103040.88;;;2.00;86.15
76853;BME280;65825;52.232;10.566;2023-01-24T03:23:33;103041.72;;;1.99;86.19
76853;BME280;65825;52.232;10.566;2023-01-24T03:26:17;103045.06;;;1.96;86.25
76853;BME280;65825;52.232;10.566;2023-01-24T03:29:01;103036.31;;;1.94;86.44
76853;BME280;65825;52.232;10.566;2023-01-24T03:31:45;103031.91;;;1.93;86.13
76853;BME280;65825;52.232;10.566;2023-01-24T03:34:29;103025.53;;;1.85;86.88
76853;BME280;65825;52.232;10.566;2023-01-24T03:36:55;103022.44;;;1.73;86.84
76853;BME280;65825;52.232;10.566;2023-01-24T03:39:21;103020.06;;;1.79;87.02
76853;BME280;65825;52.232;10.566;2023-01-24T03:42:04;103016.75;;;1.83;87.01
76853;BME280;65825;52.232;10.566;2023-01-24T03:44:29;103017.72;;;1.85;86.78
76853;BME280;65825;52.232;10.566;2023-01-24T03:46:55;103024.09;;;1.93;86.22
76853;BME280;65825;52.232;10.566;2023-01-24T03:49:20;103023.78;;;1.86;87.07
76853;BME280;65825;52.232;10.566;2023-01-24T03:52:04;103023.63;;;1.81;86.53
76853;BME280;65825;52.232;10.566;2023-01-24T03:54:48;103016.63;;;1.80;86.67
76853;BME280;65825;52.232;10.566;2023-01-24T03:57:13;103025.53;;;1.85;86.71
76853;BME280;65825;52.232;10.566;2023-01-24T03:59:38;103028.38;;;1.91;86.36
76853;BME280;65825;52.232;10.566;2023-01-24T04:02:04;103032.50;;;1.86;87.11
76853;BME280;65825;52.232;10.566;2023-01-24T04:04:29;103026.53;;;1.89;86.28
76853;BME280;65825;52.232;10.566;2023-01-24T04:07:14;103027.06;;;1.80;86.90
76853;BME280;65825;52.232;10.566;2023-01-24T04:09:39;103035.81;;;1.82;86.59
76853;BME280;65825;52.232;10.566;2023-01-24T04:12:04;103023.78;;;1.86;86.19
76853;BME280;65825;52.232;10.566;2023-01-24T04:14:30;103029.00;;;1.86;86.14
76853;BME280;65825;52.232;10.566;2023-01-24T04:16:55;103029.00;;;1.86;86.18
76853;BME280;65825;52.232;10.566;2023-01-24T04:19:20;103027.28;;;1.86;85.25
76853;BME280;65825;52.232;10.566;2023-01-24T04:21:46;103031.59;;;1.86;85.70
76853;BME280;65825;52.232;10.566;2023-01-24T04:24:11;103027.59;;;1.94;85.55
76853;BME280;65825;52.232;10.566;2023-01-24T04:26:36;103034.66;;;1.96;86.08
76853;BME280;65825;52.232;10.566;2023-01-24T04:29:01;103026.53;;;1.89;85.89
76853;BME280;65825;52.232;10.566;2023-01-24T04:31:26;103029.81;;;1.85;86.33
76853;BME280;65825;52.232;10.566;2023-01-24T04:33:52;103032.38;;;1.83;86.59
76853;BME280;65825;52.232;10.566;2023-01-24T04:36:17;103039.31;;;1.83;86.33
76853;BME280;65825;52.232;10.566;2023-01-24T04:38:42;103039.56;;;1.89;85.99
76853;BME280;65825;52.232;10.566;2023-01-24T04:41:07;103038.66;;;1.88;86.19
76853;BME280;65825;52.232;10.566;2023-01-24T04:43:37;103030.97;;;1.91;86.02
76853;BME280;65825;52.232;10.566;2023-01-24T04:46:02;103032.75;;;1.92;85.79
76853;BME280;65825;52.232;10.566;2023-01-24T04:48:28;103027.59;;;1.94;86.13
76853;BME280;65825;52.232;10.566;2023-01-24T04:51:00;103021.19;;;1.86;86.05
76853;BME280;65825;52.232;10.566;2023-01-24T04:53:26;103029.38;;;1.95;85.51
76853;BME280;65825;52.232;10.566;2023-01-24T04:55:52;103024.25;;;1.96;85.91
76853;BME280;65825;52.232;10.566;2023-01-24T04:58:17;103023.78;;;1.86;86.50
76853;BME280;65825;52.232;10.566;2023-01-24T05:00:43;103024.00;;;1.90;85.76
76853;BME280;65825;52.232;10.566;2023-01-24T05:03:08;103020.72;;;1.96;85.78
76853;BME280;65825;52.232;10.566;2023-01-24T05:05:33;103023.22;;;1.93;85.81
76853;BME280;65825;52.232;10.566;2023-01-24T05:07:59;103016.13;;;1.89;85.68
76853;BME280;65825;52.232;10.566;2023-01-24T05:10:24;103019.16;;;1.79;86.01
76853;BME280;65825;52.232;10.566;2023-01-24T05:12:49;103023.69;;;1.83;86.00
76853;BME280;65825;52.232;10.566;2023-01-24T05:15:15;103023.03;;;1.88;84.86
76853;BME280;65825;52.232;10.566;2023-01-24T05:17:44;103025.00;;;1.94;85.31
76853;BME280;65825;52.232;10.566;2023-01-24T05:20:09;103021.63;;;1.96;84.58
76853;BME280;65825;52.232;10.566;2023-01-24T05:22:35;103026.28;;;1.83;85.22
76853;BME280;65825;52.232;10.566;2023-01-24T05:25:00;103031.09;;;1.74;84.79
76853;BME280;65825;52.232;10.566;2023-01-24T05:27:25;103025.91;;;1.74;85.23
76853;BME280;65825;52.232;10.566;2023-01-24T05:29:50;103031.31;;;1.78;85.93
76853;BME280;65825;52.232;10.566;2023-01-24T05:32:16;103029.66;;;1.80;85.16
76853;BME280;65825;52.232;10.566;2023-01-24T05:34:41;103031.31;;;1.78;84.80
76853;BME280;65825;52.232;10.566;2023-01-24T05:37:06;103031.94;;;1.73;85.45
76853;BME280;65825;52.232;10.566;2023-01-24T05:39:31;103040.84;;;1.78;85.22
76853;BME280;65825;52.232;10.566;2023-01-24T05:41:57;103032.38;;;1.83;84.60
76853;BME280;65825;52.232;10.566;2023-01-24T05:44:22;103036.00;;;1.87;84.48
76853;BME280;65825;52.232;10.566;2023-01-24T05:46:47;103041.84;;;1.81;84.42
76853;BME280;65825;52.232;10.566;2023-01-24T05:49:12;103042.78;;;1.83;84.18
76853;BME280;65825;52.232;10.566;2023-01-24T05:51:38;103043.69;;;1.84;84.52
76853;BME280;65825;52.232;10.566;2023-01-24T05:54:03;103045.38;;;1.83;84.70
76853;BME280;65825;52.232;10.566;2023-01-24T05:56:28;103047.22;;;1.86;84.03
76853;BME280;65825;52.232;10.566;2023-01-24T05:58:54;103050.97;;;1.92;83.73
76853;BME280;65825;52.232;10.566;2023-01-24T06:01:21;103049.06;;;1.88;83.55
76853;BME280;65825;52.232;10.566;2023-01-24T06:03:49;103049.72;;;1.83;83.20
76853;BME280;65825;52.232;10.566;2023-01-24T06:06:17;103049.66;;;1.81;84.01
76853;BME280;65825;52.232;10.566;2023-01-24T06:08:43;103048.75;;;1.81;84.41
76853;BME280;65825;52.232;10.566;2023-01-24T06:11:14;103060.00;;;1.80;85.08
76853;BME280;65825;52.232;10.566;2023-01-24T06:13:40;103051.34;;;1.81;83.83
76853;BME280;65825;52.232;10.566;2023-01-24T06:16:17;103063.81;;;1.88;83.99
76853;BME280;65825;52.232;10.566;2023-01-24T06:18:43;103060.00;;;1.80;84.63
76853;BME280;65825;52.232;10.566;2023-01-24T06:23:59;103073.41;;;1.89;82.88
76853;BME280;65825;52.232;10.566;2023-01-24T06:26:24;103074.84;;;1.82;82.77
76853;BME280;65825;52.232;10.566;2023-01-24T06:28:50;103080.06;;;1.82;83.29
76853;BME280;65825;52.232;10.566;2023-01-24T06:31:35;103075.88;;;1.86;83.29
76853;BME280;65825;52.232;10.566;2023-01-24T06:39:50;103081.38;;;1.92;82.21
76853;BME280;65825;52.232;10.566;2023-01-24T06:42:20;103082.41;;;1.76;80.08
76853;BME280;65825;52.232;10.566;2023-01-24T06:44:46;103083.84;;;1.68;81.44
76853;BME280;65825;52.232;10.566;2023-01-24T06:47:12;103084.94;;;1.75;82.79
76853;BME280;65825;52.232;10.566;2023-01-24T06:49:38;103091.97;;;1.76;82.99
76853;BME280;65825;52.232;10.566;2023-01-24T06:52:04;103097.03;;;1.73;82.07
76853;BME280;65825;52.232;10.566;2023-01-24T06:54:30;103094.59;;;1.77;82.06
76853;BME280;65825;52.232;10.566;2023-01-24T06:56:55;103098.13;;;1.78;82.19
76853;BME280;65825;52.232;10.566;2023-01-24T06:59:20;103096.66;;;1.84;81.72
76853;BME280;65825;52.232;10.566;2023-01-24T07:01:50;103102.25;;;1.73;81.29
76853;BME280;65825;52.232;10.566;2023-01-24T07:04:16;103097.63;;;1.66;81.83
76853;BME280;65825;52.232;10.566;2023-01-24T07:06:41;103103.75;;;1.68;82.11
76853;BME280;65825;52.232;10.566;2023-01-24T07:09:07;103101.34;;;1.72;81.91
76853;BME280;65825;52.232;10.566;2023-01-24T07:11:32;103096.88;;;1.70;81.84
76853;BME280;65825;52.232;10.566;2023-01-24T07:13:57;103109.44;;;1.78;81.65
76853;BME280;65825;52.232;10.566;2023-01-24T07:16:23;103103.16;;;1.73;81.79
76853;BME280;65825;52.232;10.566;2023-01-24T07:18:48;103111.97;;;1.77;81.49
76853;BME280;65825;52.232;10.566;2023-01-24T07:21:14;103107.69;;;1.79;81.15
76853;BME280;65825;52.232;10.566;2023-01-24T07:23:43;103106.63;;;1.74;81.51
76853;BME280;65825;52.232;10.566;2023-01-24T07:26:09;103110.47;;;1.83;82.00
76853;BME280;65825;52.232;10.566;2023-01-24T07:28:36;103108.78;;;1.84;81.94
76853;BME280;65825;52.232;10.566;2023-01-24T07:31:02;103111.84;;;1.94;81.94
76853;BME280;65825;52.232;10.566;2023-01-24T07:33:28;103104.66;;;1.89;81.85
76853;BME280;65825;52.232;10.566;2023-01-24T07:35:53;103118.44;;;1.86;81.73
76853;BME280;65825;52.232;10.566;2023-01-24T07:38:18;103114.81;;;1.83;81.84
76853;BME280;65825;52.232;10.566;2023-01-24T07:40:44;103114.94;;;1.86;81.96
76853;BME280;65825;52.232;10.566;2023-01-24T07:43:09;103111.53;;;1.87;81.58
76853;BME280;65825;52.232;10.566;2023-01-24T07:45:34;103122.06;;;1.90;81.93
76853;BME280;65825;52.232;10.566;2023-01-24T07:48:04;103124.72;;;1.91;82.73
76853;BME280;65825;52.232;10.566;2023-01-24T07:50:29;103120.94;;;2.04;81.66
76853;BME280;65825;52.232;10.566;2023-01-24T07:52:55;103125.38;;;2.06;81.41
76853;BME280;65825;52.232;10.566;2023-01-24T07:55:21;103125.56;;;2.11;81.42
76853;BME280;65825;52.232;10.566;2023-01-24T07:57:47;103126.28;;;2.07;80.82
76853;BME280;65825;52.232;10.566;2023-01-24T08:00:13;103126.28;;;2.07;81.12
76853;BME280;65825;52.232;10.566;2023-01-24T08:02:40;103136.56;;;2.04;80.99
76853;BME280;65825;52.232;10.566;2023-01-24T08:05:05;103140.25;;;2.09;81.00
76853;BME280;65825;52.232;10.566;2023-01-24T08:07:31;103142.09;;;2.11;80.64
76853;BME280;65825;52.232;10.566;2023-01-24T08:09:56;103150.00;;;2.14;81.11
76853;BME280;65825;52.232;10.566;2023-01-24T08:12:21;103141.63;;;2.21;79.98
76853;BME280;65825;52.232;10.566;2023-01-24T08:14:47;103134.66;;;2.20;80.20
76853;BME280;65825;52.232;10.566;2023-01-24T08:17:12;103140.16;;;2.07;81.26
76853;BME280;65825;52.232;10.566;2023-01-24T08:19:37;103142.78;;;2.28;80.52
76853;BME280;65825;52.232;10.566;2023-01-24T08:22:04;103139.28;;;2.27;80.30
76853;BME280;65825;52.232;10.566;2023-01-24T08:24:29;103136.75;;;2.29;79.78
76853;BME280;65825;52.232;10.566;2023-01-24T08:26:55;103142.88;;;2.31;80.84
76853;BME280;65825;52.232;10.566;2023-01-24T08:29:20;103141.44;;;2.37;80.12
76853;BME280;65825;52.232;10.566;2023-01-24T08:31:45;103145.03;;;2.41;79.24
76853;BME280;65825;52.232;10.566;2023-01-24T08:34:13;103139.22;;;2.48;79.35
76853;BME280;65825;52.232;10.566;2023-01-24T08:36:38;103142.44;;;2.41;79.26
76853;BME280;65825;52.232;10.566;2023-01-24T08:39:04;103143.81;;;2.53;79.33
76853;BME280;65825;52.232;10.566;2023-01-24T08:41:29;103135.16;;;2.54;79.55
76853;BME280;65825;52.232;10.566;2023-01-24T08:43:54;103144.13;;;2.61;79.63
76853;BME280;65825;52.232;10.566;2023-01-24T08:46:20;103142.41;;;2.61;79.30
76853;BME280;65825;52.232;10.566;2023-01-24T08:48:45;103141.59;;;2.62;79.12
76853;BME280;65825;52.232;10.566;2023-01-24T08:51:10;103136.44;;;2.64;78.83
76853;BME280;65825;52.232;10.566;2023-01-24T08:53:36;103139.06;;;2.65;79.30
76853;BME280;65825;52.232;10.566;2023-01-24T08:56:02;103136.28;;;2.83;78.49
76853;BME280;65825;52.232;10.566;2023-01-24T08:58:27;103137.50;;;2.91;77.96
76853;BME280;65825;52.232;10.566;2023-01-24T09:00:53;103136.66;;;2.92;78.01
76853;BME280;65825;52.232;10.566;2023-01-24T09:03:18;103134.94;;;2.92;77.78
76853;BME280;65825;52.232;10.566;2023-01-24T09:05:44;103149.75;;;2.93;77.21
76853;BME280;65825;52.232;10.566;2023-01-24T09:08:09;103144.63;;;2.95;77.72
76853;BME280;65825;52.232;10.566;2023-01-24T09:10:35;103140.97;;;2.91;77.88
76853;BME280;65825;52.232;10.566;2023-01-24T09:13:02;103155.06;;;2.95;78.74
76853;BME280;65825;52.232;10.566;2023-01-24T09:15:27;103161.56;;;3.06;77.63
76853;BME280;65825;52.232;10.566;2023-01-24T09:17:52;103156.34;;;3.06;76.85
76853;BME280;65825;52.232;10.566;2023-01-24T09:20:18;103156.63;;;3.13;77.54
76853;BME280;65825;52.232;10.566;2023-01-24T09:22:43;103161.66;;;3.09;76.85
76853;BME280;65825;52.232;10.566;2023-01-24T09:25:09;103162.25;;;3.02;76.43
76853;BME280;65825;52.232;10.566;2023-01-24T09:27:35;103156.22;;;3.03;76.20
76853;BME280;65825;52.232;10.566;2023-01-24T09:30:00;103162.66;;;3.12;75.95
76853;BME280;65825;52.232;10.566;2023-01-24T09:32:26;103161.88;;;3.15;76.74
76853;BME280;65825;52.232;10.566;2023-01-24T09:34:51;103161.56;;;3.06;77.05
76853;BME280;65825;52.232;10.566;2023-01-24T09:37:18;103159.81;;;3.06;76.69
76853;BME280;65825;52.232;10.566;2023-01-24T09:39:43;103162.63;;;3.11;76.46
76853;BME280;65825;52.232;10.566;2023-01-24T09:42:33;103167.94;;;3.14;76.20
76853;BME280;65825;52.232;10.566;2023-01-24T09:45:24;103170.78;;;3.20;76.23
76853;BME280;65825;52.232;10.566;2023-01-24T09:47:57;103165.09;;;3.08;76.63
76853;BME280;65825;52.232;10.566;2023-01-24T09:53:22;103163.06;;;3.23;74.70
76853;BME280;65825;52.232;10.566;2023-01-24T09:55:48;103161.00;;;3.14;75.26
76853;BME280;65825;52.232;10.566;2023-01-24T09:58:34;103163.00;;;3.21;75.83
76853;BME280;65825;52.232;10.566;2023-01-24T10:01:21;103160.47;;;3.23;75.88
76853;BME280;65825;52.232;10.566;2023-01-24T10:03:46;103164.25;;;3.31;75.48
76853;BME280;65825;52.232;10.566;2023-01-24T10:06:15;103163.69;;;3.39;74.17
76853;BME280;65825;52.232;10.566;2023-01-24T10:14:10;103161.13;;;3.41;75.22
76853;BME280;65825;52.232;10.566;2023-01-24T10:17:42;103155.19;;;3.45;75.47
76853;BME280;65825;52.232;10.566;2023-01-24T10:23:04;103160.81;;;3.55;75.12
76853;BME280;65825;52.232;10.566;2023-01-24T10:28:24;103150.72;;;3.66;74.50
76853;BME280;65825;52.232;10.566;2023-01-24T10:33:20;103154.59;;;3.77;73.88
76853;BME280;65825;52.232;10.566;2023-01-24T10:35:55;103152.13;;;3.80;73.96
76853;BME280;65825;52.232;10.566;2023-01-24T10:38:22;103147.53;;;3.74;73.67
76853;BME280;65825;52.232;10.566;2023-01-24T10:41:21;103144.41;;;3.83;73.32
76853;BME280;65825;52.232;10.566;2023-01-24T10:43:58;103142.78;;;3.86;72.78
76853;BME280;65825;52.232;10.566;2023-01-24T10:49:02;103143.06;;;3.95;73.16
76853;BME280;65825;52.232;10.566;2023-01-24T10:51:28;103133.97;;;3.84;73.53
76853;BME280;65825;52.232;10.566;2023-01-24T10:54:00;103144.66;;;3.90;73.37
76853;BME280;65825;52.232;10.566;2023-01-24T10:56:26;103145.53;;;3.91;72.50
76853;BME280;65825;52.232;10.566;2023-01-24T10:58:59;103139.16;;;3.83;73.19
76853;BME280;65825;52.232;10.566;2023-01-24T11:01:35;103134.34;;;3.70;73.99
76853;BME280;65825;52.232;10.566;2023-01-24T11:04:24;103138.25;;;3.82;73.93
76853;BME280;65825;52.232;10.566;2023-01-24T11:06:51;103132.72;;;3.73;74.28
76853;BME280;65825;52.232;10.566;2023-01-24T11:09:18;103134.72;;;3.80;74.64
76853;BME280;65825;52.232;10.566;2023-01-24T11:11:53;103133.16;;;3.85;72.72
76853;BME280;65825;52.232;10.566;2023-01-24T11:14:21;103136.06;;;3.94;72.62
76853;BME280;65825;52.232;10.566;2023-01-24T11:16:50;103128.53;;;4.03;72.98
76853;BME280;65825;52.232;10.566;2023-01-24T11:19:28;103137.09;;;3.99;72.73
76853;BME280;65825;52.232;10.566;2023-01-24T11:21:56;103133.81;;;4.05;72.91
76853;BME280;65825;52.232;10.566;2023-01-24T11:24:22;103132.59;;;3.94;72.85
76853;BME280;65825;52.232;10.566;2023-01-24T11:27:04;103119.78;;;4.01;72.57
76853;BME280;65825;52.232;10.566;2023-01-24T11:29:30;103124.56;;;3.89;72.31
76853;BME280;65825;52.232;10.566;2023-01-24T11:35:03;103128.94;;;3.89;73.03
76853;BME280;65825;52.232;10.566;2023-01-24T11:42:41;103121.47;;;3.76;73.54
76853;BME280;65825;52.232;10.566;2023-01-24T11:45:25;103127.22;;;3.66;74.04
76853;BME280;65825;52.232;10.566;2023-01-24T11:48:07;103124.34;;;3.58;73.66
76853;BME280;65825;52.232;10.566;2023-01-24T11:50:39;103115.78;;;3.62;73.80
76853;BME280;65825;52.232;10.566;2023-01-24T11:53:24;103116.72;;;3.64;73.56
76853;BME280;65825;52.232;10.566;2023-01-24T11:56:03;103125.44;;;3.65;72.40
76853;BME280;65825;52.232;10.566;2023-01-24T12:05:04;103103.19;;;3.51;73.28
76853;BME280;65825;52.232;10.566;2023-01-24T12:07:27;103110.81;;;3.45;74.29
76853;BME280;65825;52.232;10.566;2023-01-24T12:10:06;103102.31;;;3.50;74.53
76853;BME280;65825;52.232;10.566;2023-01-24T12:12:41;103101.25;;;3.45;74.44
76853;BME280;65825;52.232;10.566;2023-01-24T12:20:55;103090.59;;;3.39;74.75
76853;BME280;65825;52.232;10.566;2023-01-24T12:23:26;103080.63;;;3.53;73.92
76853;BME280;65825;52.232;10.566;2023-01-24T12:25:57;103081.41;;;3.50;73.65
76853;BME280;65825;52.232;10.566;2023-01-24T12:28:41;103075.16;;;3.45;73.19
76853;BME280;65825;52.232;10.566;2023-01-24T12:31:13;103078.19;;;3.57;73.57
76853;BME280;65825;52.232;10.566;2023-01-24T12:33:54;103069.41;;;3.55;72.86
76853;BME280;65825;52.232;10.566;2023-01-24T12:36:47;103076.72;;;3.65;74.04
76853;BME280;65825;52.232;10.566;2023-01-24T12:39:21;103075.09;;;3.44;71.95
76853;BME280;65825;52.232;10.566;2023-01-24T12:42:14;103069.53;;;3.35;73.70
76853;BME280;65825;52.232;10.566;2023-01-24T12:44:47;103066.31;;;3.42;74.01
76853;BME280;65825;52.232;10.566;2023-01-24T12:47:39;103059.75;;;3.53;73.53
76853;BME280;65825;52.232;10.566;2023-01-24T12:50:30;103043.44;;;3.60;73.27
76853;BME280;65825;52.232;10.566;2023-01-24T12:53:05;103048.31;;;3.49;73.43
76853;BME280;65825;52.232;10.566;2023-01-24T12:55:40;103050.34;;;3.58;73.53
76853;BME280;65825;52.232;10.566;2023-01-24T12:58:34;103038.16;;;3.58;72.45
76853;BME280;65825;52.232;10.566;2023-01-24T13:04:09;103033.13;;;3.63;72.70
76853;BME280;65825;52.232;10.566;2023-01-24T13:11:58;103036.00;;;3.45;74.27
76853;BME280;65825;52.232;10.566;2023-01-24T13:14:34;103042.34;;;3.53;73.06
76853;BME280;65825;52.232;10.566;2023-01-24T13:20:04;103044.69;;;3.46;73.15
76853;BME280;65825;52.232;10.566;2023-01-24T13:22:45;103050.06;;;3.25;73.77
76853;BME280;65825;52.232;10.566;2023-01-24T13:25:37;103051.78;;;3.25;73.44
76853;BME280;65825;52.232;10.566;2023-01-24T13:28:22;103051.56;;;3.19;74.72
76853;BME280;65825;52.232;10.566;2023-01-24T13:31:09;103063.69;;;3.17;73.06
76853;BME280;65825;52.232;10.566;2023-01-24T13:33:48;103069.50;;;3.10;74.38
76853;BME280;65825;52.232;10.566;2023-01-24T13:36:19;103066.72;;;3.05;74.09
76853;BME280;65825;52.232;10.566;2023-01-24T13:38:46;103068.69;;;3.11;74.49
76853;BME280;65825;52.232;10.566;2023-01-24T13:41:17;103068.56;;;3.08;73.82
76853;BME280;65825;52.232;10.566;2023-01-24T13:51:52;103069.53;;;2.88;75.55
76853;BME280;65825;52.232;10.566;2023-01-24T13:54:40;103068.38;;;2.80;74.84
76853;BME280;65825;52.232;10.566;2023-01-24T13:57:41;103065.81;;;2.81;75.17
76853;BME280;65825;52.232;10.566;2023-01-24T14:02:43;103078.69;;;2.77;74.10
76853;BME280;65825;52.232;10.566;2023-01-24T14:07:53;103070.88;;;2.77;73.71
76853;BME280;65825;52.232;10.566;2023-01-24T14:10:31;103085.44;;;2.72;73.78
76853;BME280;65825;52.232;10.566;2023-01-24T14:12:57;103081.41;;;2.58;73.11
76853;BME280;65825;52.232;10.566;2023-01-24T14:15:40;103081.63;;;2.62;73.29
76853;BME280;65825;52.232;10.566;2023-01-24T14:21:13;103088.44;;;2.59;74.17
76853;BME280;65825;52.232;10.566;2023-01-24T14:23:39;103090.06;;;2.57;74.26